Grand Ace2 — D7RC — position and weather

sailwx.info

Track history (hours):
 
Tides and Currents Weather Stations Pressure Air Temp Water Temp Dewpoint Dewpoint Depression Visibility Wind Speed Wind Dir Waves Ship Positions

Grand Ace2

Last reported at 2018-Jun-17 07:48 UTC. Time now 2018-Jun-23 21:36 UTC.
Position N 01°21' E 103°17'.

Length 183 m; draft 8 m.

Type: Ship (hazmat cat A). MMSI: 440817000.

Date/timePositionNaut miles runAvg speedWind from/ knotsBaromVisibWave heightAir tempDewpointWater temp
2018-Jun-17 07:48N 01°21' E 103°17'412.2
2018-Jun-17 07:30N 01°18' E 103°19'611.8
2018-Jun-17 07:00N 01°15' E 103°24'611.5
2018-Jun-17 06:30N 01°13' E 103°29'611.8
2018-Jun-17 05:58N 01°12' E 103°35'511.6
2018-Jun-17 05:30N 01°11' E 103°41'611.7
2018-Jun-17 05:00N 01°10' E 103°46'713.9
2018-Jun-17 04:29N 01°13' E 103°53'613.4
2018-Jun-17 04:00N 01°15' E 103°59'713.6
2018-Jun-17 03:31N 01°17' E 104°06'714.2
2018-Jun-17 03:00N 01°17' E 104°13'714.1
2018-Jun-17 02:30N 01°19' E 104°20'713.2
2018-Jun-17 02:00N 01°23' E 104°25'612.5
2018-Jun-17 01:30N 01°25' E 104°30'3 0.5
2018-Jun-16 19:34N 01°25' E 104°33'0 0.0
2018-Jun-16 19:04N 01°25' E 104°33'2 0.8
2018-Jun-16 16:37N 01°25' E 104°31'213.0
2018-Jun-16 16:29N 01°25' E 104°30'612.4
2018-Jun-16 16:00N 01°21' E 104°25'611.8
2018-Jun-16 15:30N 01°18' E 104°20'4 8.1
2018-Jun-16 14:59N 01°17' E 104°16'4 8.2
2018-Jun-16 14:29N 01°17' E 104°12'611.6
2018-Jun-16 14:00N 01°16' E 104°06'612.4
2018-Jun-16 13:30N 01°15' E 104°00'612.4
2018-Jun-16 13:00N 01°13' E 103°54'510.3
2018-Jun-16 12:30N 01°11' E 103°50'2 4.5
2018-Jun-16 12:00N 01°13' E 103°49'0 0.6
2018-Jun-16 11:23N 01°13' E 103°49'0 0.0
2018-Jun-16 10:56N 01°13' E 103°49'0 0.1
2018-Jun-16 10:28N 01°13' E 103°49'0 0.1
2018-Jun-16 09:55N 01°13' E 103°49'0 0.0
2018-Jun-16 09:28N 01°13' E 103°49'0 0.0
2018-Jun-16 08:59N 01°13' E 103°49'0 0.0
2018-Jun-16 08:29N 01°13' E 103°49'0 0.0
2018-Jun-16 07:59N 01°13' E 103°49'0 0.0
2018-Jun-16 07:29N 01°13' E 103°49'0 0.1
2018-Jun-16 06:59N 01°13' E 103°49'0 0.0
2018-Jun-16 06:29N 01°13' E 103°49'0 0.2
2018-Jun-16 06:00N 01°13' E 103°49'1 2.2
2018-Jun-16 05:30N 01°14' E 103°48'3 5.4
2018-Jun-16 05:00N 01°15' E 103°46'3 6.4
2018-Jun-16 04:31N 01°17' E 103°44'0 0.1
2018-Jun-16 03:54N 01°17' E 103°44'0 0.0
2018-Jun-16 03:21N 01°17' E 103°44'0 0.0
2018-Jun-16 02:53N 01°17' E 103°44'0 0.0
2018-Jun-16 02:15N 01°17' E 103°44'0 0.0
2018-Jun-16 01:54N 01°17' E 103°44'0 0.0
2018-Jun-16 01:27N 01°17' E 103°44'0 0.0
2018-Jun-16 00:57N 01°17' E 103°44'0 0.0
2018-Jun-16 00:27N 01°17' E 103°44'0 0.0
2018-Jun-15 23:54N 01°17' E 103°44'0 0.0
2018-Jun-15 23:27N 01°17' E 103°44'0 0.0
2018-Jun-15 22:57N 01°17' E 103°44'0 0.0
2018-Jun-15 22:30N 01°17' E 103°44'0 0.0
2018-Jun-15 21:57N 01°17' E 103°44'0 0.0
2018-Jun-15 21:21N 01°17' E 103°44'0 0.0
2018-Jun-15 20:54N 01°17' E 103°44'0 0.0
2018-Jun-15 20:09N 01°17' E 103°44'0 0.0
2018-Jun-15 19:45N 01°17' E 103°44'0 0.0
2018-Jun-15 19:24N 01°17' E 103°44'0 0.0
2018-Jun-15 18:57N 01°17' E 103°44'0 0.0
2018-Jun-15 18:09N 01°17' E 103°44'0 0.0
2018-Jun-15 17:45N 01°17' E 103°44'0 0.0
2018-Jun-15 17:27N 01°17' E 103°44'0 0.0
2018-Jun-15 17:00N 01°17' E 103°44'0 0.0
2018-Jun-15 16:27N 01°17' E 103°44'0 0.0
2018-Jun-15 16:00N 01°17' E 103°44'0 0.0
2018-Jun-15 15:09N 01°17' E 103°44'0 0.0
2018-Jun-15 14:59N 01°17' E 103°44'0 0.0
2018-Jun-15 14:26N 01°17' E 103°44'0 0.0
2018-Jun-15 14:00N 01°17' E 103°44'0 0.0
2018-Jun-15 13:30N 01°17' E 103°44'0 0.0
2018-Jun-15 12:51N 01°17' E 103°44'0 0.0
2018-Jun-15 12:15N 01°17' E 103°44'0 0.0
2018-Jun-15 11:54N 01°17' E 103°44'0 0.0
2018-Jun-15 11:21N 01°17' E 103°44'0 0.0
2018-Jun-15 11:00N 01°17' E 103°44'0 0.0
2018-Jun-15 10:27N 01°17' E 103°44'0 0.0
2018-Jun-15 09:57N 01°17' E 103°44'0 0.0
2018-Jun-15 09:17N 01°17' E 103°44'0 0.0
2018-Jun-15 09:00N 01°17' E 103°44'0 0.0
2018-Jun-15 08:24N 01°17' E 103°44'0 0.0
2018-Jun-15 07:47N 01°17' E 103°44'0 0.0
2018-Jun-15 07:30N 01°17' E 103°44'0 0.0
2018-Jun-15 07:01N 01°17' E 103°44'1 3.0
2018-Jun-15 06:30N 01°17' E 103°45'510.1
2018-Jun-15 06:00N 01°13' E 103°48'0 1.0
2018-Jun-15 05:30N 01°13' E 103°49'0 0.3
2018-Jun-15 04:56N 01°13' E 103°49'0 0.1
2018-Jun-15 04:26N 01°13' E 103°49'0 0.1
2018-Jun-15 04:00N 01°13' E 103°49'0 0.2
2018-Jun-15 03:27N 01°13' E 103°49'0 0.1
2018-Jun-15 03:00N 01°13' E 103°49'0 0.2
2018-Jun-15 02:30N 01°13' E 103°49'0 0.1
2018-Jun-15 02:00N 01°13' E 103°49'0 0.1
2018-Jun-15 01:29N 01°13' E 103°49'0 0.0
2018-Jun-15 01:00N 01°13' E 103°49'0 0.1
2018-Jun-15 00:30N 01°13' E 103°49'0 0.0
2018-Jun-15 00:00N 01°13' E 103°49'0 0.8
2018-Jun-14 23:31N 01°13' E 103°49'4 7.3
2018-Jun-14 23:00N 01°15' E 103°46'612.2
2018-Jun-14 22:31N 01°13' E 103°40'5 8.2
2018-Jun-14 21:56N 01°12' E 103°36'3 6.5
2018-Jun-14 21:30N 01°11' E 103°33'1 2.6
2018-Jun-14 21:00N 01°11' E 103°32'3 5.4
2018-Jun-14 20:30N 01°10' E 103°29'2 4.1
2018-Jun-14 20:00N 01°09' E 103°28'2 4.8
2018-Jun-14 19:29N 01°11' E 103°25'3 5.8
2018-Jun-14 19:00N 01°12' E 103°23'3 7.1
2018-Jun-14 18:30N 01°15' E 103°21'611.9
2018-Jun-14 17:58N 01°19' E 103°16'511.8
2018-Jun-14 17:30N 01°23' E 103°12'  
Track history (hours):
 
Tides and Currents Weather Stations Pressure Air Temp Water Temp Dewpoint Dewpoint Depression Visibility Wind Speed Wind Dir Waves Ship Positions

Grand Ace2

Last reported at 2018-Jun-17 07:48 UTC. Time now 2018-Jun-23 21:36 UTC.
Position N 01°21' E 103°17'.

Length 183 m; draft 8 m.

Type: Ship (hazmat cat A). MMSI: 440817000.

Date/timePositionNaut miles runAvg speedWind from/ knotsBaromVisibWave heightAir tempDewpointWater temp
2018-Jun-17 07:48N 01°21' E 103°17'412.2
2018-Jun-17 07:30N 01°18' E 103°19'611.8
2018-Jun-17 07:00N 01°15' E 103°24'611.5
2018-Jun-17 06:30N 01°13' E 103°29'611.8
2018-Jun-17 05:58N 01°12' E 103°35'511.6
2018-Jun-17 05:30N 01°11' E 103°41'611.7
2018-Jun-17 05:00N 01°10' E 103°46'713.9
2018-Jun-17 04:29N 01°13' E 103°53'613.4
2018-Jun-17 04:00N 01°15' E 103°59'713.6
2018-Jun-17 03:31N 01°17' E 104°06'714.2
2018-Jun-17 03:00N 01°17' E 104°13'714.1
2018-Jun-17 02:30N 01°19' E 104°20'713.2
2018-Jun-17 02:00N 01°23' E 104°25'612.5
2018-Jun-17 01:30N 01°25' E 104°30'3 0.5
2018-Jun-16 19:34N 01°25' E 104°33'0 0.0
2018-Jun-16 19:04N 01°25' E 104°33'2 0.8
2018-Jun-16 16:37N 01°25' E 104°31'213.0
2018-Jun-16 16:29N 01°25' E 104°30'612.4
2018-Jun-16 16:00N 01°21' E 104°25'611.8
2018-Jun-16 15:30N 01°18' E 104°20'4 8.1
2018-Jun-16 14:59N 01°17' E 104°16'4 8.2
2018-Jun-16 14:29N 01°17' E 104°12'611.6
2018-Jun-16 14:00N 01°16' E 104°06'612.4
2018-Jun-16 13:30N 01°15' E 104°00'612.4
2018-Jun-16 13:00N 01°13' E 103°54'510.3
2018-Jun-16 12:30N 01°11' E 103°50'2 4.5
2018-Jun-16 12:00N 01°13' E 103°49'0 0.6
2018-Jun-16 11:23N 01°13' E 103°49'0 0.0
2018-Jun-16 10:56N 01°13' E 103°49'0 0.1
2018-Jun-16 10:28N 01°13' E 103°49'0 0.1
2018-Jun-16 09:55N 01°13' E 103°49'0 0.0
2018-Jun-16 09:28N 01°13' E 103°49'0 0.0
2018-Jun-16 08:59N 01°13' E 103°49'0 0.0
2018-Jun-16 08:29N 01°13' E 103°49'0 0.0
2018-Jun-16 07:59N 01°13' E 103°49'0 0.0
2018-Jun-16 07:29N 01°13' E 103°49'0 0.1
2018-Jun-16 06:59N 01°13' E 103°49'0 0.0
2018-Jun-16 06:29N 01°13' E 103°49'0 0.2
2018-Jun-16 06:00N 01°13' E 103°49'1 2.2
2018-Jun-16 05:30N 01°14' E 103°48'3 5.4
2018-Jun-16 05:00N 01°15' E 103°46'3 6.4
2018-Jun-16 04:31N 01°17' E 103°44'0 0.1
2018-Jun-16 03:54N 01°17' E 103°44'0 0.0
2018-Jun-16 03:21N 01°17' E 103°44'0 0.0
2018-Jun-16 02:53N 01°17' E 103°44'0 0.0
2018-Jun-16 02:15N 01°17' E 103°44'0 0.0
2018-Jun-16 01:54N 01°17' E 103°44'0 0.0
2018-Jun-16 01:27N 01°17' E 103°44'0 0.0
2018-Jun-16 00:57N 01°17' E 103°44'0 0.0
2018-Jun-16 00:27N 01°17' E 103°44'0 0.0
2018-Jun-15 23:54N 01°17' E 103°44'0 0.0
2018-Jun-15 23:27N 01°17' E 103°44'0 0.0
2018-Jun-15 22:57N 01°17' E 103°44'0 0.0
2018-Jun-15 22:30N 01°17' E 103°44'0 0.0
2018-Jun-15 21:57N 01°17' E 103°44'0 0.0
2018-Jun-15 21:21N 01°17' E 103°44'0 0.0
2018-Jun-15 20:54N 01°17' E 103°44'0 0.0
2018-Jun-15 20:09N 01°17' E 103°44'0 0.0
2018-Jun-15 19:45N 01°17' E 103°44'0 0.0
2018-Jun-15 19:24N 01°17' E 103°44'0 0.0
2018-Jun-15 18:57N 01°17' E 103°44'0 0.0
2018-Jun-15 18:09N 01°17' E 103°44'0 0.0
2018-Jun-15 17:45N 01°17' E 103°44'0 0.0
2018-Jun-15 17:27N 01°17' E 103°44'0 0.0
2018-Jun-15 17:00N 01°17' E 103°44'0 0.0
2018-Jun-15 16:27N 01°17' E 103°44'0 0.0
2018-Jun-15 16:00N 01°17' E 103°44'0 0.0
2018-Jun-15 15:09N 01°17' E 103°44'0 0.0
2018-Jun-15 14:59N 01°17' E 103°44'0 0.0
2018-Jun-15 14:26N 01°17' E 103°44'0 0.0
2018-Jun-15 14:00N 01°17' E 103°44'0 0.0
2018-Jun-15 13:30N 01°17' E 103°44'0 0.0
2018-Jun-15 12:51N 01°17' E 103°44'0 0.0
2018-Jun-15 12:15N 01°17' E 103°44'0 0.0
2018-Jun-15 11:54N 01°17' E 103°44'0 0.0
2018-Jun-15 11:21N 01°17' E 103°44'0 0.0
2018-Jun-15 11:00N 01°17' E 103°44'0 0.0
2018-Jun-15 10:27N 01°17' E 103°44'0 0.0
2018-Jun-15 09:57N 01°17' E 103°44'0 0.0
2018-Jun-15 09:17N 01°17' E 103°44'0 0.0
2018-Jun-15 09:00N 01°17' E 103°44'0 0.0
2018-Jun-15 08:24N 01°17' E 103°44'0 0.0
2018-Jun-15 07:47N 01°17' E 103°44'0 0.0
2018-Jun-15 07:30N 01°17' E 103°44'0 0.0
2018-Jun-15 07:01N 01°17' E 103°44'1 3.0
2018-Jun-15 06:30N 01°17' E 103°45'510.1
2018-Jun-15 06:00N 01°13' E 103°48'0 1.0
2018-Jun-15 05:30N 01°13' E 103°49'0 0.3
2018-Jun-15 04:56N 01°13' E 103°49'0 0.1
2018-Jun-15 04:26N 01°13' E 103°49'0 0.1
2018-Jun-15 04:00N 01°13' E 103°49'0 0.2
2018-Jun-15 03:27N 01°13' E 103°49'0 0.1
2018-Jun-15 03:00N 01°13' E 103°49'0 0.2
2018-Jun-15 02:30N 01°13' E 103°49'0 0.1
2018-Jun-15 02:00N 01°13' E 103°49'0 0.1
2018-Jun-15 01:29N 01°13' E 103°49'0 0.0
2018-Jun-15 01:00N 01°13' E 103°49'0 0.1
2018-Jun-15 00:30N 01°13' E 103°49'0 0.0
2018-Jun-15 00:00N 01°13' E 103°49'0 0.8
2018-Jun-14 23:31N 01°13' E 103°49'4 7.3
2018-Jun-14 23:00N 01°15' E 103°46'612.2
2018-Jun-14 22:31N 01°13' E 103°40'5 8.2
2018-Jun-14 21:56N 01°12' E 103°36'3 6.5
2018-Jun-14 21:30N 01°11' E 103°33'1 2.6
2018-Jun-14 21:00N 01°11' E 103°32'3 5.4
2018-Jun-14 20:30N 01°10' E 103°29'2 4.1
2018-Jun-14 20:00N 01°09' E 103°28'2 4.8
2018-Jun-14 19:29N 01°11' E 103°25'3 5.8
2018-Jun-14 19:00N 01°12' E 103°23'3 7.1
2018-Jun-14 18:30N 01°15' E 103°21'611.9
2018-Jun-14 17:58N 01°19' E 103°16'511.8
2018-Jun-14 17:30N 01°23' E 103°12'  

Dump ship's entire track history